createdAt,value
2017-10-16T00:02:32.300Z,101679.14
2017-10-16T00:05:07.325Z,101683.38
2017-10-16T00:07:42.949Z,101679.62
2017-10-16T00:10:17.809Z,101681.31
2017-10-16T00:12:52.652Z,101680.86
2017-10-16T00:15:27.560Z,101678.39
2017-10-16T00:18:02.713Z,101674.79
2017-10-16T00:20:37.422Z,101673.91
2017-10-16T00:23:12.277Z,101677.11
2017-10-16T00:25:47.001Z,101674.31
2017-10-16T00:28:21.733Z,101660.89
2017-10-16T00:30:56.772Z,101668.63
2017-10-16T00:33:31.417Z,101669.56
2017-10-16T00:36:06.141Z,101668.80
2017-10-16T00:38:40.969Z,101677.13
2017-10-16T00:41:15.825Z,101678.13
2017-10-16T00:43:50.549Z,101672.02
2017-10-16T00:46:25.261Z,101681.09
2017-10-16T00:48:59.911Z,101676.28
2017-10-16T00:51:34.708Z,101675.16
2017-10-16T00:54:09.889Z,101674.68
2017-10-16T00:56:44.125Z,101670.19
2017-10-16T00:59:18.613Z,101669.72
2017-10-16T01:01:53.857Z,101672.06
2017-10-16T01:04:28.577Z,101667.63
2017-10-16T01:07:03.413Z,101664.69
2017-10-16T01:09:38.049Z,101664.89
2017-10-16T01:12:12.840Z,101657.80
2017-10-16T01:14:47.661Z,101657.20
2017-10-16T01:17:22.057Z,101651.05
2017-10-16T01:19:56.706Z,101657.39
2017-10-16T01:22:31.281Z,101650.42
2017-10-16T01:25:06.051Z,101655.20
2017-10-16T01:27:40.849Z,101660.81
2017-10-16T01:30:15.276Z,101656.92
2017-10-16T01:32:50.101Z,101658.77
2017-10-16T01:35:24.962Z,101655.97
2017-10-16T01:37:59.417Z,101659.50
2017-10-16T01:40:34.300Z,101654.83
2017-10-16T01:43:09.085Z,101655.43
2017-10-16T01:45:43.960Z,101652.36
2017-10-16T01:48:18.597Z,101648.30
2017-10-16T01:50:53.545Z,101645.45
2017-10-16T01:53:28.649Z,101645.98
2017-10-16T01:56:02.908Z,101651.99
2017-10-16T01:58:37.898Z,101649.91
2017-10-16T02:01:12.092Z,101654.20
2017-10-16T02:03:47.218Z,101655.42
2017-10-16T02:06:21.685Z,101654.08
2017-10-16T02:08:56.897Z,101660.14
2017-10-16T02:11:31.766Z,101658.20
2017-10-16T02:14:06.829Z,101658.66
2017-10-16T02:16:41.677Z,101654.46
2017-10-16T02:19:16.516Z,101656.53
2017-10-16T02:21:51.074Z,101662.64
2017-10-16T02:24:25.700Z,101659.33
2017-10-16T02:27:00.485Z,101657.52
2017-10-16T02:29:35.226Z,101656.30
2017-10-16T02:32:10.169Z,101657.30
2017-10-16T02:34:44.903Z,101658.55
2017-10-16T02:37:19.833Z,101656.72
2017-10-16T02:39:54.557Z,101656.83
2017-10-16T02:42:29.359Z,101660.72
2017-10-16T02:45:04.137Z,101656.89
2017-10-16T02:47:39.016Z,101656.22
2017-10-16T02:50:13.849Z,101651.84
2017-10-16T02:52:49.658Z,101655.73
2017-10-16T02:55:24.280Z,101650.79
2017-10-16T02:57:58.922Z,101649.67
2017-10-16T03:00:33.919Z,101657.37
2017-10-16T03:03:08.733Z,101651.19
2017-10-16T03:05:43.574Z,101651.92
2017-10-16T03:08:18.388Z,101650.60
2017-10-16T03:10:53.236Z,101650.50
2017-10-16T03:13:28.078Z,101643.04
2017-10-16T03:16:02.785Z,101649.66
2017-10-16T03:18:37.634Z,101644.33
2017-10-16T03:21:12.460Z,101646.23
2017-10-16T03:23:47.197Z,101645.08
2017-10-16T03:26:22.097Z,101650.72
2017-10-16T03:28:56.840Z,101644.25
2017-10-16T03:31:31.600Z,101645.89
2017-10-16T03:34:06.425Z,101645.08
2017-10-16T03:36:41.165Z,101642.22
2017-10-16T03:39:15.824Z,101640.34
2017-10-16T03:41:50.745Z,101636.34
2017-10-16T03:44:25.573Z,101632.42
2017-10-16T03:47:00.404Z,101632.95
2017-10-16T03:49:35.071Z,101628.62
2017-10-16T03:52:09.877Z,101632.24
2017-10-16T03:54:44.711Z,101634.80
2017-10-16T03:57:19.417Z,101634.12
2017-10-16T03:59:54.109Z,101641.16
2017-10-16T04:02:29.043Z,101646.76
2017-10-16T04:05:03.537Z,101648.08
2017-10-16T04:07:38.606Z,101656.91
2017-10-16T04:10:13.557Z,101652.63
2017-10-16T04:12:48.262Z,101650.27
2017-10-16T04:15:23.138Z,101650.44
2017-10-16T04:17:57.945Z,101655.94
2017-10-16T04:20:32.792Z,101654.72
2017-10-16T04:23:07.575Z,101654.48
2017-10-16T04:25:42.486Z,101655.33
2017-10-16T04:28:17.472Z,101670.63
2017-10-16T04:30:52.593Z,101673.78
2017-10-16T04:33:27.842Z,101671.98
2017-10-16T04:36:02.714Z,101662.79
2017-10-16T04:38:38.301Z,101664.59
2017-10-16T04:41:13.445Z,101662.93
2017-10-16T04:43:48.089Z,101663.91
2017-10-16T04:46:22.765Z,101660.28
2017-10-16T04:48:57.549Z,101662.62
2017-10-16T04:51:32.482Z,101653.98
2017-10-16T04:54:07.345Z,101653.73
2017-10-16T04:56:42.089Z,101651.70
2017-10-16T04:59:16.793Z,101646.20
2017-10-16T05:01:51.545Z,101638.58
2017-10-16T05:04:26.406Z,101638.41
2017-10-16T05:07:01.149Z,101633.52
2017-10-16T05:09:36.008Z,101637.52
2017-10-16T05:12:10.841Z,101636.50
2017-10-16T05:14:45.553Z,101638.03
2017-10-16T05:17:20.437Z,101627.52
2017-10-16T05:19:55.253Z,101632.39
2017-10-16T05:22:30.148Z,101634.77
2017-10-16T05:25:04.930Z,101632.80
2017-10-16T05:27:39.549Z,101634.30
2017-10-16T05:30:14.513Z,101629.03
2017-10-16T05:32:49.308Z,101638.44
2017-10-16T05:35:24.164Z,101641.45
2017-10-16T05:37:59.021Z,101652.38
2017-10-16T05:40:33.834Z,101646.50
2017-10-16T05:43:08.678Z,101639.17
2017-10-16T05:45:43.142Z,101636.57
2017-10-16T05:48:18.277Z,101639.11
2017-10-16T05:50:53.165Z,101637.31
2017-10-16T05:53:27.884Z,101633.14
2017-10-16T05:56:03.025Z,101630.43
2017-10-16T05:58:37.826Z,101633.82
2017-10-16T06:01:12.481Z,101635.21
2017-10-16T06:03:47.349Z,101645.22
2017-10-16T06:06:21.819Z,101640.33
2017-10-16T06:08:56.563Z,101646.36
2017-10-16T06:11:31.561Z,101635.87
2017-10-16T06:14:06.301Z,101650.66
2017-10-16T06:16:40.461Z,101642.22
2017-10-16T06:19:15.597Z,101638.58
2017-10-16T06:21:50.285Z,101643.03
2017-10-16T06:24:24.884Z,101631.74
2017-10-16T06:26:59.647Z,101634.66
2017-10-16T06:29:34.368Z,101630.69
2017-10-16T06:32:09.153Z,101636.34
2017-10-16T06:34:44.286Z,101638.45
2017-10-16T06:37:19.083Z,101643.73
2017-10-16T06:39:53.829Z,101642.29
2017-10-16T06:42:28.644Z,101640.99
2017-10-16T06:45:03.044Z,101638.58
2017-10-16T06:47:37.513Z,101644.54
2017-10-16T06:50:12.651Z,101647.06
2017-10-16T06:52:47.291Z,101643.36
2017-10-16T06:55:21.821Z,101648.53
2017-10-16T06:57:56.444Z,101656.69
2017-10-16T07:00:30.728Z,101647.70
2017-10-16T07:03:05.802Z,101648.67
2017-10-16T07:05:40.746Z,101650.33
2017-10-16T07:08:15.350Z,101646.33
2017-10-16T07:10:50.107Z,101650.80
2017-10-16T07:13:24.838Z,101643.61
2017-10-16T07:15:59.610Z,101637.61
2017-10-16T07:18:35.073Z,101641.42
2017-10-16T07:21:09.941Z,101639.23
2017-10-16T07:23:44.473Z,101641.78
2017-10-16T07:26:18.850Z,101648.08
2017-10-16T07:28:54.078Z,101641.16
2017-10-16T07:31:28.458Z,101644.88
2017-10-16T07:34:03.489Z,101642.18
2017-10-16T07:36:38.234Z,101644.35
2017-10-16T07:39:12.690Z,101636.28
2017-10-16T07:41:47.653Z,101648.17
2017-10-16T07:44:22.497Z,101648.92
2017-10-16T07:46:57.109Z,101655.34
2017-10-16T07:49:32.035Z,101655.05
2017-10-16T07:52:06.828Z,101647.88
2017-10-16T07:54:41.586Z,101652.05
2017-10-16T07:57:16.341Z,101654.06
2017-10-16T07:59:51.069Z,101651.55
2017-10-16T08:02:25.747Z,101659.92
2017-10-16T08:05:00.481Z,101664.06
2017-10-16T08:07:35.662Z,101672.09
2017-10-16T08:10:10.077Z,101674.59
2017-10-16T08:12:44.905Z,101676.78
2017-10-16T08:15:20.997Z,101671.41
2017-10-16T08:17:55.437Z,101676.73
2017-10-16T08:20:30.255Z,101672.41
2017-10-16T08:23:04.654Z,101674.00
2017-10-16T08:25:39.134Z,101674.92
2017-10-16T08:28:13.935Z,101675.62
2017-10-16T08:30:48.278Z,101674.88
2017-10-16T08:33:23.265Z,101673.63
2017-10-16T08:35:57.903Z,101675.50
2017-10-16T08:38:32.684Z,101676.41
2017-10-16T08:41:07.330Z,101680.89
2017-10-16T08:43:42.202Z,101690.52
2017-10-16T08:46:17.151Z,101697.34
2017-10-16T08:48:51.862Z,101704.58
2017-10-16T08:51:26.525Z,101713.38
2017-10-16T08:54:01.114Z,101710.46
2017-10-16T08:56:35.782Z,101711.39
2017-10-16T08:59:10.474Z,101714.34
2017-10-16T09:01:45.562Z,101710.28
2017-10-16T09:04:19.925Z,101713.83
2017-10-16T09:06:54.398Z,101719.08
2017-10-16T09:09:29.185Z,101714.43
2017-10-16T09:12:03.927Z,101725.41
2017-10-16T09:14:38.758Z,101714.88
2017-10-16T09:17:13.197Z,101723.15
2017-10-16T09:19:48.104Z,101720.08
2017-10-16T09:22:22.645Z,101715.47
2017-10-16T09:24:57.305Z,101718.22
2017-10-16T09:27:32.078Z,101718.23
2017-10-16T09:30:06.661Z,101716.60
2017-10-16T09:32:41.342Z,101724.20
2017-10-16T09:35:16.274Z,101729.00
2017-10-16T09:37:51.353Z,101720.32
2017-10-16T09:40:26.024Z,101725.00
2017-10-16T09:43:00.868Z,101723.32
2017-10-16T09:45:35.382Z,101722.31
2017-10-16T09:48:10.114Z,101718.59
2017-10-16T09:50:44.941Z,101730.66
2017-10-16T09:53:19.644Z,101727.35
2017-10-16T09:55:54.297Z,101731.39
2017-10-16T09:58:28.841Z,101726.38
2017-10-16T10:01:03.622Z,101737.77
2017-10-16T10:03:38.289Z,101739.75
2017-10-16T10:06:12.914Z,101737.80
2017-10-16T10:08:47.532Z,101734.80
2017-10-16T10:11:22.220Z,101728.98
2017-10-16T10:13:57.057Z,101725.50
2017-10-16T10:16:31.831Z,101726.70
2017-10-16T10:19:06.889Z,101723.23
2017-10-16T10:21:41.698Z,101721.41
2017-10-16T10:24:16.328Z,101720.52
2017-10-16T10:26:51.081Z,101719.70
2017-10-16T10:29:25.885Z,101713.10
2017-10-16T10:32:00.554Z,101711.01
2017-10-16T10:34:35.269Z,101698.97
2017-10-16T10:37:09.996Z,101703.22
2017-10-16T10:39:44.473Z,101700.24
2017-10-16T10:42:19.385Z,101692.59
2017-10-16T10:44:54.161Z,101695.80
2017-10-16T10:47:28.890Z,101702.19
2017-10-16T10:50:03.462Z,101696.52
2017-10-16T10:52:37.954Z,101697.38
2017-10-16T10:55:12.629Z,101702.00
2017-10-16T10:57:47.454Z,101706.05
2017-10-16T11:00:21.597Z,101702.92
2017-10-16T11:02:56.657Z,101709.05
2017-10-16T11:05:30.932Z,101706.66
2017-10-16T11:08:05.773Z,101709.12
2017-10-16T11:10:40.569Z,101698.69
2017-10-16T11:13:15.233Z,101704.98
2017-10-16T11:15:49.920Z,101693.63
2017-10-16T11:18:25.257Z,101702.64
2017-10-16T11:20:59.361Z,101700.86
2017-10-16T11:23:33.949Z,101702.95
2017-10-16T11:26:08.830Z,101706.88
2017-10-16T11:28:43.590Z,101698.20
2017-10-16T11:31:18.150Z,101692.80
2017-10-16T11:33:52.857Z,101700.75
2017-10-16T11:36:27.433Z,101697.79
2017-10-16T11:39:02.017Z,101699.61
2017-10-16T11:41:36.794Z,101699.31
2017-10-16T11:44:11.580Z,101691.53
2017-10-16T11:46:45.989Z,101689.57
2017-10-16T11:49:20.905Z,101689.52
2017-10-16T11:51:55.374Z,101696.70
2017-10-16T11:54:29.868Z,101685.88
2017-10-16T11:57:04.820Z,101677.83
2017-10-16T11:59:39.818Z,101674.77
2017-10-16T12:02:14.408Z,101666.52
2017-10-16T12:04:48.973Z,101669.94
2017-10-16T12:07:23.420Z,101667.17
2017-10-16T12:09:58.149Z,101662.37
2017-10-16T12:12:32.625Z,101661.52
2017-10-16T12:15:07.103Z,101652.67
2017-10-16T12:17:41.703Z,101657.22
2017-10-16T12:20:17.125Z,101648.58
2017-10-16T12:22:52.156Z,101653.56
2017-10-16T12:25:26.316Z,101656.21
2017-10-16T12:28:00.872Z,101658.44
2017-10-16T12:30:35.486Z,101658.14
2017-10-16T12:33:10.161Z,101650.71
2017-10-16T12:35:44.839Z,101650.67
2017-10-16T12:38:19.316Z,101644.76
2017-10-16T12:40:54.074Z,101645.25
2017-10-16T12:43:28.792Z,101643.86
2017-10-16T12:46:03.316Z,101649.84
2017-10-16T12:48:38.287Z,101651.30
2017-10-16T12:51:12.757Z,101649.91
2017-10-16T12:53:48.036Z,101656.76
2017-10-16T12:56:23.464Z,101651.00
2017-10-16T12:58:58.077Z,101649.66
2017-10-16T13:01:32.633Z,101659.19
2017-10-16T13:04:06.827Z,101648.52
2017-10-16T13:06:41.465Z,101647.13
2017-10-16T13:09:15.987Z,101639.59
2017-10-16T13:11:50.998Z,101645.39
2017-10-16T13:14:25.645Z,101637.62
2017-10-16T13:17:00.337Z,101632.92
2017-10-16T13:19:34.689Z,101636.83
2017-10-16T13:22:09.128Z,101626.40
2017-10-16T13:24:43.934Z,101629.23
2017-10-16T13:27:18.761Z,101633.14
2017-10-16T13:29:53.548Z,101625.97
2017-10-16T13:32:28.104Z,101630.56
2017-10-16T13:35:02.744Z,101619.15
2017-10-16T13:37:37.313Z,101623.08
2017-10-16T13:40:11.781Z,101624.25
2017-10-16T13:42:46.441Z,101625.05
2017-10-16T13:45:20.937Z,101618.85
2017-10-16T13:47:55.346Z,101618.94
2017-10-16T13:50:30.100Z,101613.94
2017-10-16T13:53:04.741Z,101612.69
2017-10-16T13:55:38.951Z,101613.83
2017-10-16T13:58:13.580Z,101612.55
2017-10-16T14:00:48.481Z,101613.88
2017-10-16T14:03:23.056Z,101618.90
2017-10-16T14:05:57.640Z,101623.61
2017-10-16T14:08:32.328Z,101619.64
2017-10-16T14:11:06.840Z,101618.34
2017-10-16T14:13:40.988Z,101611.35
2017-10-16T14:16:15.848Z,101621.16
2017-10-16T14:18:50.557Z,101618.60
2017-10-16T14:21:25.209Z,101611.83
2017-10-16T14:23:59.780Z,101613.70
2017-10-16T14:26:34.517Z,101603.84
2017-10-16T14:29:09.184Z,101608.59
2017-10-16T14:31:43.642Z,101612.41
2017-10-16T14:34:17.772Z,101610.58
2017-10-16T14:36:52.713Z,101605.14
2017-10-16T14:39:27.392Z,101601.99
2017-10-16T14:42:02.029Z,101600.78
2017-10-16T14:44:36.626Z,101597.43
2017-10-16T14:47:11.289Z,101597.55
2017-10-16T14:49:45.743Z,101598.83
2017-10-16T14:52:20.404Z,101596.31
2017-10-16T14:54:55.150Z,101600.80
2017-10-16T14:57:29.636Z,101604.01
2017-10-16T15:00:04.399Z,101600.66
2017-10-16T15:02:38.943Z,101596.20
2017-10-16T15:05:13.740Z,101592.72
2017-10-16T15:07:48.224Z,101597.98
2017-10-16T15:10:22.668Z,101598.45
2017-10-16T15:12:57.612Z,101596.82
2017-10-16T15:15:32.262Z,101583.83
2017-10-16T15:18:07.053Z,101584.55
2017-10-16T15:20:41.996Z,101579.00
2017-10-16T15:23:16.487Z,101573.59
2017-10-16T15:25:51.153Z,101573.88
2017-10-16T15:28:25.723Z,101572.37
2017-10-16T15:30:59.909Z,101560.20
2017-10-16T15:33:34.672Z,101559.34
2017-10-16T15:36:09.498Z,101549.96
2017-10-16T15:38:44.176Z,101548.64
2017-10-16T15:41:18.779Z,101554.88
2017-10-16T15:43:53.433Z,101554.02
2017-10-16T15:46:28.022Z,101554.29
2017-10-16T15:49:02.613Z,101551.55
2017-10-16T15:51:37.199Z,101552.73
2017-10-16T15:54:12.066Z,101553.52
2017-10-16T15:56:46.406Z,101550.11
2017-10-16T15:59:20.848Z,101548.30
2017-10-16T16:01:55.428Z,101550.73
2017-10-16T16:04:30.136Z,101552.20
2017-10-16T16:07:04.776Z,101544.12
2017-10-16T16:09:39.372Z,101550.03
2017-10-16T16:12:13.835Z,101543.70
2017-10-16T16:14:48.584Z,101547.64
2017-10-16T16:17:23.620Z,101546.97
2017-10-16T16:19:58.160Z,101551.87
2017-10-16T16:22:32.932Z,101548.40
2017-10-16T16:25:07.670Z,101547.41
2017-10-16T16:27:41.979Z,101550.49
2017-10-16T16:30:16.677Z,101549.91
2017-10-16T16:32:51.160Z,101544.03
2017-10-16T16:35:25.596Z,101542.10
2017-10-16T16:38:00.285Z,101547.26
2017-10-16T16:40:34.843Z,101552.11
2017-10-16T16:43:09.536Z,101553.30
2017-10-16T16:45:44.505Z,101550.61
2017-10-16T16:48:18.979Z,101550.72
2017-10-16T16:50:53.969Z,101557.36
2017-10-16T16:53:28.695Z,101550.38
2017-10-16T16:56:03.536Z,101550.81
2017-10-16T16:58:38.351Z,101558.20
2017-10-16T17:01:12.767Z,101559.41
2017-10-16T17:03:47.280Z,101564.80
2017-10-16T17:06:21.912Z,101551.87
2017-10-16T17:08:56.568Z,101560.97
2017-10-16T17:11:31.168Z,101567.13
2017-10-16T17:14:05.875Z,101565.41
2017-10-16T17:16:40.596Z,101566.80
2017-10-16T17:19:15.791Z,101568.87
2017-10-16T17:21:50.151Z,101576.55
2017-10-16T17:24:25.335Z,101574.77
2017-10-16T17:26:59.722Z,101575.84
2017-10-16T17:29:35.047Z,101577.02
2017-10-16T17:32:09.188Z,101579.91
2017-10-16T17:34:44.120Z,101574.17
2017-10-16T17:37:18.698Z,101578.29
2017-10-16T17:39:53.520Z,101577.50
2017-10-16T17:42:28.851Z,101583.40
2017-10-16T17:45:03.345Z,101578.83
2017-10-16T17:47:38.178Z,101577.26
2017-10-16T17:50:12.944Z,101581.95
2017-10-16T17:52:47.645Z,101582.72
2017-10-16T17:55:22.826Z,101581.66
2017-10-16T17:57:57.651Z,101575.22
2017-10-16T18:00:32.324Z,101577.84
2017-10-16T18:03:07.521Z,101576.00
2017-10-16T18:05:42.113Z,101574.98
2017-10-16T18:08:17.029Z,101573.48
2017-10-16T18:10:51.762Z,101574.62
2017-10-16T18:13:26.647Z,101574.52
2017-10-16T18:16:01.921Z,101579.39
2017-10-16T18:18:36.557Z,101564.76
2017-10-16T18:21:11.380Z,101566.05
2017-10-16T18:23:46.222Z,101570.04
2017-10-16T18:26:21.357Z,101577.02
2017-10-16T18:28:56.115Z,101573.92
2017-10-16T18:31:30.868Z,101571.00
2017-10-16T18:34:05.833Z,101567.41
2017-10-16T18:36:40.305Z,101570.85
2017-10-16T18:39:14.889Z,101564.70
2017-10-16T18:41:50.233Z,101566.06
2017-10-16T18:44:25.412Z,101566.81
2017-10-16T18:47:00.117Z,101561.98
2017-10-16T18:49:35.395Z,101564.03
2017-10-16T18:52:10.201Z,101564.02
2017-10-16T18:54:44.884Z,101560.84
2017-10-16T18:57:19.801Z,101558.73
2017-10-16T18:59:54.511Z,101547.47
2017-10-16T19:02:29.653Z,101549.10
2017-10-16T19:05:05.465Z,101545.78
2017-10-16T19:07:39.791Z,101545.53
2017-10-16T19:10:14.635Z,101545.68
2017-10-16T19:12:49.587Z,101536.09
2017-10-16T19:15:24.221Z,101538.61
2017-10-16T19:17:58.979Z,101539.91
2017-10-16T19:20:33.354Z,101533.17
2017-10-16T19:23:08.646Z,101538.27
2017-10-16T19:25:42.962Z,101536.17
2017-10-16T19:28:18.843Z,101544.30
2017-10-16T19:30:53.731Z,101538.73
2017-10-16T19:33:28.655Z,101535.67
2017-10-16T19:36:03.248Z,101532.85
2017-10-16T19:38:37.475Z,101534.73
2017-10-16T19:41:11.552Z,101537.98
2017-10-16T19:43:46.192Z,101534.76
2017-10-16T19:46:20.871Z,101532.72
2017-10-16T19:48:55.735Z,101533.41
2017-10-16T19:51:29.747Z,101534.02
2017-10-16T19:54:04.583Z,101542.67
2017-10-16T19:56:39.589Z,101546.55
2017-10-16T19:59:14.640Z,101546.44
2017-10-16T20:01:49.476Z,101547.20
2017-10-16T20:04:24.205Z,101546.27
2017-10-16T20:06:59.240Z,101535.17
2017-10-16T20:09:33.870Z,101545.77
2017-10-16T20:12:08.726Z,101539.83
2017-10-16T20:14:43.348Z,101544.29
2017-10-16T20:17:18.364Z,101537.64
2017-10-16T20:19:53.188Z,101539.56
2017-10-16T20:22:27.780Z,101538.03
2017-10-16T20:25:02.604Z,101530.27
2017-10-16T20:27:37.259Z,101537.43
2017-10-16T20:30:12.139Z,101533.88
2017-10-16T20:32:46.877Z,101525.88
2017-10-16T20:35:21.565Z,101530.56
2017-10-16T20:37:56.413Z,101530.45
2017-10-16T20:40:31.043Z,101534.20
2017-10-16T20:43:05.784Z,101532.08
2017-10-16T20:45:39.805Z,101542.63
2017-10-16T20:48:14.525Z,101535.84
2017-10-16T20:50:49.450Z,101529.28
2017-10-16T20:53:24.119Z,101537.12
2017-10-16T20:55:59.192Z,101540.27
2017-10-16T20:58:33.875Z,101530.69
2017-10-16T21:01:08.034Z,101535.47
2017-10-16T21:03:42.784Z,101545.70
2017-10-16T21:06:17.507Z,101540.75
2017-10-16T21:08:51.928Z,101544.84
2017-10-16T21:11:26.528Z,101547.55
2017-10-16T21:14:01.288Z,101553.39
2017-10-16T21:16:35.497Z,101548.56
2017-10-16T21:19:10.365Z,101551.02
2017-10-16T21:21:45.473Z,101550.18
2017-10-16T21:24:19.859Z,101548.56
2017-10-16T21:26:54.311Z,101552.94
2017-10-16T21:29:29.245Z,101561.42
2017-10-16T21:32:03.190Z,101561.28
2017-10-16T21:34:37.791Z,101565.73
2017-10-16T21:37:12.685Z,101566.54
2017-10-16T21:39:47.307Z,101571.04
2017-10-16T21:42:22.018Z,101569.48
2017-10-16T21:44:56.796Z,101564.48
2017-10-16T21:47:31.444Z,101562.70
2017-10-16T21:50:06.133Z,101565.44
2017-10-16T21:52:40.913Z,101554.61
2017-10-16T21:55:15.867Z,101562.23
2017-10-16T21:57:50.739Z,101565.92
2017-10-16T22:00:26.296Z,101564.44
2017-10-16T22:03:00.388Z,101567.58
2017-10-16T22:05:35.054Z,101569.20
2017-10-16T22:08:09.868Z,101559.73
2017-10-16T22:10:44.972Z,101562.25
2017-10-16T22:13:19.533Z,101562.54
2017-10-16T22:15:54.440Z,101553.13
2017-10-16T22:18:28.662Z,101554.05
2017-10-16T22:21:03.529Z,101557.52
2017-10-16T22:23:38.340Z,101550.24
2017-10-16T22:26:13.348Z,101554.98
2017-10-16T22:28:48.391Z,101554.53
2017-10-16T22:31:23.250Z,101558.09
2017-10-16T22:33:57.856Z,101554.27
2017-10-16T22:36:34.436Z,101553.88
2017-10-16T22:39:08.658Z,101550.80
2017-10-16T22:41:43.100Z,101545.11
2017-10-16T22:44:17.167Z,101548.09
2017-10-16T22:46:52.001Z,101548.41
2017-10-16T22:49:26.849Z,101550.58
2017-10-16T22:52:01.566Z,101555.87
2017-10-16T22:54:48.883Z,101551.02
2017-10-16T22:57:22.975Z,101552.55
2017-10-16T22:59:57.417Z,101542.36
2017-10-16T23:02:32.692Z,101546.67
2017-10-16T23:05:07.347Z,101554.20
2017-10-16T23:07:42.062Z,101558.95
2017-10-16T23:10:16.874Z,101558.67
2017-10-16T23:12:51.936Z,101551.54
2017-10-16T23:15:26.760Z,101553.53
2017-10-16T23:18:01.626Z,101548.54
2017-10-16T23:20:35.773Z,101554.41
2017-10-16T23:23:10.693Z,101548.67
2017-10-16T23:25:45.416Z,101545.28
2017-10-16T23:28:20.159Z,101550.12
2017-10-16T23:30:55.218Z,101542.50
2017-10-16T23:33:29.984Z,101546.53
2017-10-16T23:36:04.856Z,101537.84
2017-10-16T23:38:39.840Z,101541.49
2017-10-16T23:41:14.688Z,101539.97
2017-10-16T23:43:49.551Z,101551.98
2017-10-16T23:46:23.661Z,101556.14
2017-10-16T23:48:58.518Z,101555.74
2017-10-16T23:51:33.336Z,101556.15
2017-10-16T23:54:08.145Z,101553.70
2017-10-16T23:56:42.926Z,101556.08
2017-10-16T23:59:17.387Z,101552.19
